Time;durP1;ratioP1;P1;durP2;ratioP2;P2;SDS_P1;SDS_P2;PMS_P1;PMS_P2;Temp;Humidity;BMP_temperature;BMP_pressure;BME280_temperature;BME280_humidity;BME280_pressure;Samples;Min_cycle;Max_cycle;Signal;HPM_P1;HPM_P2
2023/08/29 00:00:41;;;;;;;2.00;1.90;;;;;;;;;;4947969;29;20230;-60
2023/08/29 00:03:09;;;;;;;2.30;2.20;;;;;;;;;;4948140;29;20233;-59
2023/08/29 00:05:36;;;;;;;3.22;2.17;;;;;;;;;;4947916;28;20211;-59
2023/08/29 00:08:03;;;;;;;2.55;2.38;;;;;;;;;;4947861;29;20693;-59
2023/08/29 00:10:30;;;;;;;2.38;2.30;;;;;;;;;;4947755;28;20222;-59
2023/08/29 00:12:57;;;;;;;4.20;2.15;;;;;;;;;;4962458;28;20715;-59
2023/08/29 00:15:25;;;;;;;1.95;1.85;;;;;;;;;;4967727;28;20227;-59
2023/08/29 00:17:52;;;;;;;2.50;2.30;;;;;;;;;;4966533;28;20594;-59
2023/08/29 00:20:19;;;;;;;3.70;2.10;;;;;;;;;;4966692;28;20218;-59
2023/08/29 00:22:46;;;;;;;2.25;2.13;;;;;;;;;;4967096;28;20242;-59
2023/08/29 00:25:13;;;;;;;2.33;2.20;;;;;;;;;;4974203;28;20218;-59
2023/08/29 00:27:40;;;;;;;4.50;2.25;;;;;;;;;;4968688;28;20906;-59
2023/08/29 00:30:08;;;;;;;2.65;2.17;;;;;;;;;;4977589;28;20202;-59
2023/08/29 00:32:36;;;;;;;3.28;2.05;;;;;;;;;;4962217;28;20207;-58
2023/08/29 00:35:03;;;;;;;2.17;2.17;;;;;;;;;;4976016;28;20686;-59
2023/08/29 00:37:31;;;;;;;2.22;2.08;;;;;;;;;;4972336;28;20677;-59
2023/08/29 00:39:58;;;;;;;2.38;2.38;;;;;;;;;;4970842;28;20213;-60
2023/08/29 00:42:25;;;;;;;2.53;2.40;;;;;;;;;;4970742;28;20570;-59
2023/08/29 00:44:52;;;;;;;4.60;2.33;;;;;;;;;;4982582;28;20214;-59
2023/08/29 00:47:19;;;;;;;2.33;2.22;;;;;;;;;;4981830;28;20225;-59
2023/08/29 00:49:47;;;;;;;2.55;2.10;;;;;;;;;;4970044;28;20221;-59
2023/08/29 00:52:15;;;;;;;3.40;2.13;;;;;;;;;;4970290;28;20217;-59
2023/08/29 00:54:42;;;;;;;2.55;2.30;;;;;;;;;;4973784;28;20564;-59
2023/08/29 00:57:09;;;;;;;4.63;2.17;;;;;;;;;;4970781;28;20807;-61
2023/08/29 00:59:37;;;;;;;2.08;2.08;;;;;;;;;;4967412;28;20225;-60
2023/08/29 01:02:04;;;;;;;2.25;2.17;;;;;;;;;;4967932;28;20234;-60
2023/08/29 01:04:31;;;;;;;3.60;2.40;;;;;;;;;;4968836;28;20637;-60
2023/08/29 01:07:00;;;;;;;2.30;2.17;;;;;;;;;;4968510;28;20242;-60
2023/08/29 01:09:27;;;;;;;3.65;2.03;;;;;;;;;;4970114;28;20298;-60
2023/08/29 01:11:56;;;;;;;2.40;2.30;;;;;;;;;;4970152;28;20223;-60
2023/08/29 01:14:27;;;;;;;2.30;2.20;;;;;;;;;;4970377;28;20221;-60
2023/08/29 01:16:57;;;;;;;2.45;1.88;;;;;;;;;;4980961;28;20211;-60
2023/08/29 01:19:25;;;;;;;2.50;2.40;;;;;;;;;;4969760;28;20225;-60
2023/08/29 01:21:57;;;;;;;3.70;2.17;;;;;;;;;;4958975;28;20244;-60
2023/08/29 01:24:27;;;;;;;2.53;2.35;;;;;;;;;;4970868;28;20223;-60
2023/08/29 01:26:57;;;;;;;2.40;2.20;;;;;;;;;;4970115;28;20573;-60
2023/08/29 01:29:24;;;;;;;2.05;2.05;;;;;;;;;;4969994;28;20214;-60
2023/08/29 01:31:52;;;;;;;1.77;1.70;;;;;;;;;;4969356;28;20199;-60
2023/08/29 01:34:19;;;;;;;3.03;1.80;;;;;;;;;;4969970;28;20272;-60
2023/08/29 01:36:47;;;;;;;5.32;1.95;;;;;;;;;;4969813;28;20198;-60
2023/08/29 01:39:14;;;;;;;3.33;1.88;;;;;;;;;;4969730;28;20528;-59
2023/08/29 01:41:41;;;;;;;2.42;2.10;;;;;;;;;;4968848;28;20321;-59
2023/08/29 01:44:10;;;;;;;2.47;2.33;;;;;;;;;;4969713;28;20424;-59
2023/08/29 01:46:37;;;;;;;2.35;2.25;;;;;;;;;;4977357;28;20210;-59
2023/08/29 01:49:05;;;;;;;2.45;2.17;;;;;;;;;;4969665;28;20214;-59
2023/08/29 01:51:32;;;;;;;2.22;2.03;;;;;;;;;;4969854;28;20748;-59
2023/08/29 01:53:59;;;;;;;2.60;2.47;;;;;;;;;;4968790;28;20669;-58
2023/08/29 01:56:27;;;;;;;2.20;2.20;;;;;;;;;;4969663;28;20581;-59
2023/08/29 01:58:55;;;;;;;3.78;2.30;;;;;;;;;;4969349;28;20735;-59
2023/08/29 02:01:24;;;;;;;3.10;2.25;;;;;;;;;;4960462;28;20237;-60
2023/08/29 02:03:51;;;;;;;2.38;2.28;;;;;;;;;;4969643;28;20253;-59
2023/08/29 02:06:18;;;;;;;2.40;2.20;;;;;;;;;;4969195;28;20213;-59
2023/08/29 02:08:45;;;;;;;1.98;1.90;;;;;;;;;;4968012;28;20206;-59
2023/08/29 02:11:12;;;;;;;3.03;2.28;;;;;;;;;;4968973;28;20198;-59
2023/08/29 02:13:39;;;;;;;4.53;2.10;;;;;;;;;;4969303;28;20237;-60
2023/08/29 02:16:06;;;;;;;7.28;1.88;;;;;;;;;;4973558;28;20865;-59
2023/08/29 02:18:35;;;;;;;2.35;2.03;;;;;;;;;;4967744;28;20216;-59
2023/08/29 02:21:02;;;;;;;3.60;2.10;;;;;;;;;;4986014;28;20727;-59
2023/08/29 02:23:29;;;;;;;2.70;2.20;;;;;;;;;;4969343;28;20210;-60
2023/08/29 02:26:03;;;;;;;3.80;2.22;;;;;;;;;;4969645;28;20225;-60
2023/08/29 02:28:31;;;;;;;2.22;2.13;;;;;;;;;;4969546;28;20274;-59
2023/08/29 02:31:03;;;;;;;3.17;2.60;;;;;;;;;;4969332;28;20225;-59
2023/08/29 02:33:30;;;;;;;2.50;2.40;;;;;;;;;;4969348;28;20218;-59
2023/08/29 02:35:59;;;;;;;2.83;2.13;;;;;;;;;;4968589;28;20214;-60
2023/08/29 02:38:26;;;;;;;2.40;2.30;;;;;;;;;;4960548;28;20198;-59
2023/08/29 02:40:53;;;;;;;2.60;2.50;;;;;;;;;;4956352;28;20293;-60
2023/08/29 02:43:20;;;;;;;2.97;2.30;;;;;;;;;;4959046;28;20210;-67
2023/08/29 02:45:47;;;;;;;5.40;2.30;;;;;;;;;;4958864;28;20202;-60
2023/08/29 02:48:15;;;;;;;2.40;2.30;;;;;;;;;;4960150;28;20199;-60
2023/08/29 02:50:43;;;;;;;2.55;2.45;;;;;;;;;;4961053;28;20347;-60
2023/08/29 02:53:11;;;;;;;2.25;2.15;;;;;;;;;;4959604;28;21246;-60
2023/08/29 02:55:40;;;;;;;3.00;2.78;;;;;;;;;;4963626;28;20688;-59
2023/08/29 02:58:07;;;;;;;3.80;2.00;;;;;;;;;;4957876;28;20210;-60
2023/08/29 03:00:35;;;;;;;2.05;1.95;;;;;;;;;;4961188;28;20209;-60
2023/08/29 03:03:03;;;;;;;5.03;2.20;;;;;;;;;;4960089;28;20238;-60
2023/08/29 03:05:30;;;;;;;5.18;2.20;;;;;;;;;;4957047;28;20207;-60
2023/08/29 03:07:57;;;;;;;2.47;2.38;;;;;;;;;;4958626;28;20203;-60
2023/08/29 03:10:25;;;;;;;2.50;2.30;;;;;;;;;;4961915;28;20222;-60
2023/08/29 03:12:53;;;;;;;2.58;2.47;;;;;;;;;;4958547;28;20595;-60
2023/08/29 03:15:20;;;;;;;2.00;2.00;;;;;;;;;;4958913;28;20325;-61
2023/08/29 03:17:48;;;;;;;2.33;2.33;;;;;;;;;;4957278;28;20687;-60
2023/08/29 03:20:16;;;;;;;2.15;2.10;;;;;;;;;;4961142;28;20280;-60
2023/08/29 03:22:43;;;;;;;3.17;2.35;;;;;;;;;;4958907;28;20239;-60
2023/08/29 03:25:10;;;;;;;3.40;2.63;;;;;;;;;;4960440;28;20221;-60
2023/08/29 03:27:39;;;;;;;2.88;2.78;;;;;;;;;;4960530;28;20210;-61
2023/08/29 03:30:06;;;;;;;2.50;2.50;;;;;;;;;;4957269;28;20569;-61
2023/08/29 03:32:33;;;;;;;3.78;2.55;;;;;;;;;;4958960;28;20604;-62
2023/08/29 03:35:00;;;;;;;5.15;2.40;;;;;;;;;;4962134;28;20719;-59
2023/08/29 03:37:28;;;;;;;2.85;2.53;;;;;;;;;;4958853;28;20221;-59
2023/08/29 03:39:55;;;;;;;3.83;2.42;;;;;;;;;;4959270;28;20203;-59
2023/08/29 03:42:23;;;;;;;2.35;2.25;;;;;;;;;;4956178;28;20226;-60
2023/08/29 03:44:51;;;;;;;2.47;2.38;;;;;;;;;;4959055;28;20207;-59
2023/08/29 03:47:18;;;;;;;3.55;2.50;;;;;;;;;;4958845;28;20207;-60
2023/08/29 03:49:45;;;;;;;2.17;2.13;;;;;;;;;;4961417;28;20254;-60
2023/08/29 03:52:21;;;;;;;2.15;2.15;;;;;;;;;;4968237;28;20683;-59
2023/08/29 03:54:48;;;;;;;3.28;2.60;;;;;;;;;;4978559;28;20898;-61
2023/08/29 03:57:15;;;;;;;4.55;3.10;;;;;;;;;;4978344;28;20297;-60
2023/08/29 03:59:42;;;;;;;2.30;2.30;;;;;;;;;;4958105;28;20298;-59
2023/08/29 04:02:11;;;;;;;2.70;2.50;;;;;;;;;;4959011;28;20222;-60
2023/08/29 04:04:38;;;;;;;2.58;2.38;;;;;;;;;;4958992;28;20298;-60
2023/08/29 04:07:05;;;;;;;2.50;2.50;;;;;;;;;;4961025;28;20264;-60
2023/08/29 04:09:33;;;;;;;3.10;2.92;;;;;;;;;;4961440;28;20221;-59
2023/08/29 04:12:00;;;;;;;4.82;3.15;;;;;;;;;;4966505;28;20274;-60
2023/08/29 04:14:27;;;;;;;2.65;2.55;;;;;;;;;;4962336;28;20214;-60
2023/08/29 04:16:55;;;;;;;2.90;2.72;;;;;;;;;;4967692;28;20210;-60
2023/08/29 04:19:24;;;;;;;3.72;2.88;;;;;;;;;;4968645;28;20210;-60
2023/08/29 04:21:51;;;;;;;3.03;2.65;;;;;;;;;;4966970;28;20245;-60
2023/08/29 04:24:18;;;;;;;3.78;2.40;;;;;;;;;;4965058;28;20261;-60
2023/08/29 04:26:45;;;;;;;3.33;3.03;;;;;;;;;;4960440;28;20210;-60
2023/08/29 04:29:13;;;;;;;2.92;2.70;;;;;;;;;;4968399;28;20558;-60
2023/08/29 04:31:40;;;;;;;2.60;2.55;;;;;;;;;;4967096;28;20214;-60
2023/08/29 04:34:07;;;;;;;2.80;2.70;;;;;;;;;;4981229;28;20203;-60
2023/08/29 04:36:35;;;;;;;2.47;2.38;;;;;;;;;;4968685;28;20206;-60
2023/08/29 04:39:02;;;;;;;2.70;2.60;;;;;;;;;;4967662;28;20219;-61
2023/08/29 04:41:30;;;;;;;2.90;2.78;;;;;;;;;;4957830;28;20740;-60
2023/08/29 04:43:57;;;;;;;3.08;2.88;;;;;;;;;;4954237;28;20289;-61
2023/08/29 04:46:25;;;;;;;3.35;3.03;;;;;;;;;;4954146;28;20223;-60
2023/08/29 04:48:53;;;;;;;3.45;3.15;;;;;;;;;;4949458;28;20669;-60
2023/08/29 04:51:20;;;;;;;3.15;2.95;;;;;;;;;;4949571;28;20695;-60
2023/08/29 04:53:49;;;;;;;2.72;2.60;;;;;;;;;;4951451;28;20409;-60
2023/08/29 04:56:16;;;;;;;4.13;3.20;;;;;;;;;;4967246;28;20204;-61
2023/08/29 04:58:43;;;;;;;2.95;2.85;;;;;;;;;;4952654;28;21012;-61
2023/08/29 05:01:10;;;;;;;3.25;2.95;;;;;;;;;;4958608;28;20313;-60
2023/08/29 05:03:37;;;;;;;2.60;2.50;;;;;;;;;;4966942;28;20226;-60
2023/08/29 05:06:04;;;;;;;3.17;2.97;;;;;;;;;;4967363;28;20520;-61
2023/08/29 05:08:34;;;;;;;2.95;2.78;;;;;;;;;;4968867;28;20240;-61
2023/08/29 05:11:03;;;;;;;3.15;2.97;;;;;;;;;;4968637;28;20214;-60
2023/08/29 05:13:30;;;;;;;2.67;2.58;;;;;;;;;;4967660;28;20608;-61
2023/08/29 05:15:57;;;;;;;3.30;2.88;;;;;;;;;;4966300;28;20221;-60
2023/08/29 05:18:24;;;;;;;3.30;3.20;;;;;;;;;;4971762;28;20210;-61
2023/08/29 05:20:51;;;;;;;3.17;3.05;;;;;;;;;;4956573;28;20211;-61
2023/08/29 05:23:18;;;;;;;3.58;3.38;;;;;;;;;;4951850;29;20243;-61
2023/08/29 05:25:45;;;;;;;2.83;2.72;;;;;;;;;;4964013;28;20202;-61
2023/08/29 05:28:14;;;;;;;3.15;2.95;;;;;;;;;;4963759;28;20211;-61
2023/08/29 05:30:42;;;;;;;5.95;3.58;;;;;;;;;;4951627;29;20215;-61
2023/08/29 05:33:10;;;;;;;3.22;3.00;;;;;;;;;;4980667;28;20217;-59
2023/08/29 05:35:37;;;;;;;3.90;3.33;;;;;;;;;;4965642;28;20221;-59
2023/08/29 05:38:04;;;;;;;3.25;2.95;;;;;;;;;;4968970;28;20214;-59
2023/08/29 05:40:31;;;;;;;2.90;2.80;;;;;;;;;;4971167;28;20222;-61
2023/08/29 05:42:58;;;;;;;3.53;3.33;;;;;;;;;;4989826;28;20249;-60
2023/08/29 05:45:27;;;;;;;5.47;3.28;;;;;;;;;;4979692;28;20218;-60
2023/08/29 05:47:54;;;;;;;8.68;3.17;;;;;;;;;;4955771;28;20211;-60
2023/08/29 05:50:21;;;;;;;3.35;2.97;;;;;;;;;;4951500;29;20234;-62
2023/08/29 05:52:48;;;;;;;3.30;3.00;;;;;;;;;;4967618;28;20293;-61
2023/08/29 05:55:16;;;;;;;2.92;2.70;;;;;;;;;;4962967;28;20575;-62
2023/08/29 05:57:43;;;;;;;3.47;3.33;;;;;;;;;;4960067;28;20218;-62
2023/08/29 06:00:13;;;;;;;4.95;3.33;;;;;;;;;;4960628;28;20208;-62
2023/08/29 06:02:42;;;;;;;3.47;3.17;;;;;;;;;;4961877;28;20218;-62
2023/08/29 06:05:10;;;;;;;3.33;3.10;;;;;;;;;;4965754;28;20207;-62
2023/08/29 06:07:38;;;;;;;5.35;3.40;;;;;;;;;;4958324;28;20210;-62
2023/08/29 06:10:06;;;;;;;5.47;3.55;;;;;;;;;;4961756;28;20202;-62
2023/08/29 06:12:33;;;;;;;4.95;3.22;;;;;;;;;;4961289;28;20242;-62
2023/08/29 06:15:00;;;;;;;4.15;3.08;;;;;;;;;;4960294;28;20207;-62
2023/08/29 06:17:27;;;;;;;3.85;3.35;;;;;;;;;;4960268;28;20297;-62
2023/08/29 06:19:55;;;;;;;3.50;3.22;;;;;;;;;;4958329;28;20204;-62
2023/08/29 06:22:23;;;;;;;4.07;3.00;;;;;;;;;;4960388;28;20238;-63
2023/08/29 06:24:50;;;;;;;5.22;2.75;;;;;;;;;;4961139;28;20218;-62
2023/08/29 06:27:17;;;;;;;3.03;2.55;;;;;;;;;;4959839;28;20228;-62
2023/08/29 06:29:44;;;;;;;2.95;2.75;;;;;;;;;;4959328;28;20210;-62
2023/08/29 06:32:11;;;;;;;3.05;2.65;;;;;;;;;;4959692;28;20213;-62
2023/08/29 06:34:38;;;;;;;4.35;2.78;;;;;;;;;;4958762;28;20218;-61
2023/08/29 06:37:06;;;;;;;2.90;2.70;;;;;;;;;;4959142;28;20429;-62
2023/08/29 06:39:33;;;;;;;2.58;2.58;;;;;;;;;;4963150;28;20602;-62
2023/08/29 06:42:00;;;;;;;2.80;2.60;;;;;;;;;;4961758;28;20230;-62
2023/08/29 06:44:27;;;;;;;2.72;2.53;;;;;;;;;;4959356;28;20715;-62
2023/08/29 06:46:54;;;;;;;2.70;2.50;;;;;;;;;;4955303;28;20230;-62
2023/08/29 06:49:21;;;;;;;2.58;2.40;;;;;;;;;;4957996;28;20207;-62
2023/08/29 06:51:49;;;;;;;1.92;1.92;;;;;;;;;;4958407;28;20213;-62
2023/08/29 06:54:18;;;;;;;3.78;2.83;;;;;;;;;;4961619;28;20199;-62
2023/08/29 06:56:45;;;;;;;2.63;2.53;;;;;;;;;;4958607;28;20223;-62
2023/08/29 06:59:12;;;;;;;2.35;2.15;;;;;;;;;;4958176;28;20214;-62
2023/08/29 07:01:39;;;;;;;1.88;1.88;;;;;;;;;;4960258;28;20207;-62
2023/08/29 07:04:06;;;;;;;2.40;2.22;;;;;;;;;;4959958;28;20219;-62
2023/08/29 07:06:33;;;;;;;2.22;2.03;;;;;;;;;;4958077;28;20708;-62
2023/08/29 07:09:01;;;;;;;2.63;2.15;;;;;;;;;;4959189;28;20213;-62
2023/08/29 07:11:29;;;;;;;2.72;2.55;;;;;;;;;;4958456;28;21007;-63
2023/08/29 07:13:56;;;;;;;2.92;2.22;;;;;;;;;;4957395;28;20195;-63
2023/08/29 07:16:23;;;;;;;2.03;1.92;;;;;;;;;;4958190;28;20203;-63
2023/08/29 07:18:50;;;;;;;3.17;2.22;;;;;;;;;;4961976;28;20218;-62
2023/08/29 07:21:17;;;;;;;2.70;1.90;;;;;;;;;;4956992;28;20242;-63
2023/08/29 07:23:44;;;;;;;3.00;2.35;;;;;;;;;;4958298;28;20743;-62
2023/08/29 07:26:12;;;;;;;2.47;2.35;;;;;;;;;;4960831;28;20220;-62
2023/08/29 07:28:41;;;;;;;1.90;1.80;;;;;;;;;;4957735;28;20677;-62
2023/08/29 07:31:08;;;;;;;2.20;2.10;;;;;;;;;;4958497;28;20203;-63
2023/08/29 07:33:35;;;;;;;2.13;1.70;;;;;;;;;;4959510;28;20210;-63
2023/08/29 07:36:02;;;;;;;3.25;2.45;;;;;;;;;;4961854;28;20225;-62
2023/08/29 07:38:29;;;;;;;2.75;2.47;;;;;;;;;;4968914;28;20222;-62
2023/08/29 07:40:57;;;;;;;3.17;2.40;;;;;;;;;;4961199;28;20237;-63
2023/08/29 07:43:24;;;;;;;3.63;2.20;;;;;;;;;;4948351;28;20713;-65
2023/08/29 07:45:53;;;;;;;3.88;2.85;;;;;;;;;;4957475;28;20202;-63
2023/08/29 07:48:20;;;;;;;2.40;2.30;;;;;;;;;;4967860;28;20207;-63
2023/08/29 07:50:47;;;;;;;2.20;2.20;;;;;;;;;;4967297;28;20214;-61
2023/08/29 07:53:14;;;;;;;2.38;2.28;;;;;;;;;;4956896;28;20238;-63
2023/08/29 07:55:41;;;;;;;2.35;2.00;;;;;;;;;;4964818;28;20248;-62
2023/08/29 07:58:09;;;;;;;2.53;2.30;;;;;;;;;;4948232;29;20211;-63
2023/08/29 08:00:36;;;;;;;2.22;2.03;;;;;;;;;;4948268;29;20218;-63
2023/08/29 08:03:05;;;;;;;2.20;2.08;;;;;;;;;;4948158;29;20240;-63
2023/08/29 08:05:32;;;;;;;2.30;2.00;;;;;;;;;;4965188;28;20234;-60
2023/08/29 08:08:00;;;;;;;2.28;2.13;;;;;;;;;;4967279;28;20352;-59
2023/08/29 08:10:27;;;;;;;5.35;2.17;;;;;;;;;;4967163;28;20775;-60
2023/08/29 08:12:54;;;;;;;2.78;1.52;;;;;;;;;;4967810;28;20554;-60
2023/08/29 08:15:21;;;;;;;3.15;1.88;;;;;;;;;;4967019;28;20207;-59
2023/08/29 08:17:48;;;;;;;2.50;1.83;;;;;;;;;;4978345;28;20217;-59
2023/08/29 08:20:17;;;;;;;2.00;2.00;;;;;;;;;;4987064;28;20220;-59
2023/08/29 08:22:44;;;;;;;2.55;2.13;;;;;;;;;;4977953;28;20245;-59
2023/08/29 08:25:11;;;;;;;2.10;2.00;;;;;;;;;;4967177;28;20302;-59
2023/08/29 08:27:40;;;;;;;4.03;1.88;;;;;;;;;;4966718;28;20206;-61
2023/08/29 08:30:08;;;;;;;2.03;1.92;;;;;;;;;;4966871;28;20237;-65
2023/08/29 08:32:35;;;;;;;1.75;1.65;;;;;;;;;;4966761;28;20202;-64
2023/08/29 08:35:04;;;;;;;1.90;1.90;;;;;;;;;;4967342;28;20296;-63
2023/08/29 08:37:33;;;;;;;1.48;1.48;;;;;;;;;;4966688;28;20718;-62
2023/08/29 08:40:00;;;;;;;2.35;2.15;;;;;;;;;;4967415;28;20560;-63
2023/08/29 08:42:28;;;;;;;3.72;2.47;;;;;;;;;;4967418;28;20560;-62
2023/08/29 08:44:55;;;;;;;2.35;2.17;;;;;;;;;;4966897;28;20732;-63
2023/08/29 08:47:22;;;;;;;3.60;2.30;;;;;;;;;;4966824;28;20217;-63
2023/08/29 08:49:49;;;;;;;2.45;1.90;;;;;;;;;;4965450;28;20222;-63
2023/08/29 08:52:17;;;;;;;4.93;1.95;;;;;;;;;;4969211;28;20214;-63
2023/08/29 08:54:46;;;;;;;3.25;1.98;;;;;;;;;;4970960;28;20222;-63
2023/08/29 08:57:13;;;;;;;1.58;1.42;;;;;;;;;;4970420;28;21008;-63
2023/08/29 08:59:41;;;;;;;2.25;1.60;;;;;;;;;;4971821;28;20210;-64
2023/08/29 09:02:10;;;;;;;1.52;1.42;;;;;;;;;;4988088;28;20216;-61
2023/08/29 09:04:37;;;;;;;3.40;1.77;;;;;;;;;;4970723;28;20234;-60
2023/08/29 09:07:04;;;;;;;1.45;1.45;;;;;;;;;;4970336;28;20210;-61
2023/08/29 09:09:31;;;;;;;2.10;1.50;;;;;;;;;;4969733;28;20319;-63
2023/08/29 09:11:59;;;;;;;2.50;1.30;;;;;;;;;;4970303;28;20260;-60
2023/08/29 09:14:27;;;;;;;1.40;1.40;;;;;;;;;;4969636;28;20202;-59
2023/08/29 09:16:55;;;;;;;1.02;1.02;;;;;;;;;;4969278;28;20681;-60
2023/08/29 09:19:22;;;;;;;1.95;1.30;;;;;;;;;;4964624;28;20210;-61
2023/08/29 09:21:50;;;;;;;1.52;1.42;;;;;;;;;;4966896;28;20234;-61
2023/08/29 09:24:23;;;;;;;1.02;1.02;;;;;;;;;;4966262;28;20247;-62
2023/08/29 09:26:51;;;;;;;1.10;1.10;;;;;;;;;;4967680;28;20289;-60
2023/08/29 09:29:19;;;;;;;1.20;1.20;;;;;;;;;;4968888;28;20210;-61
2023/08/29 09:31:47;;;;;;;1.85;1.10;;;;;;;;;;4958858;28;20697;-61
2023/08/29 09:34:30;;;;;;;1.30;1.25;;;;;;;;;;4958103;28;20215;-61
2023/08/29 09:36:58;;;;;;;4.05;1.48;;;;;;;;;;4963991;28;20207;-61
2023/08/29 09:39:25;;;;;;;1.02;1.02;;;;;;;;;;4964944;28;20206;-60
2023/08/29 09:42:02;;;;;;;1.90;1.10;;;;;;;;;;4968154;28;20649;-61
2023/08/29 09:44:31;;;;;;;0.90;0.90;;;;;;;;;;4962327;28;20256;-59
2023/08/29 09:46:58;;;;;;;4.68;1.55;;;;;;;;;;4968125;28;20213;-60
2023/08/29 09:49:31;;;;;;;3.17;1.48;;;;;;;;;;4967023;28;20290;-60
2023/08/29 09:52:01;;;;;;;1.30;1.20;;;;;;;;;;4969477;28;20214;-60
2023/08/29 09:54:29;;;;;;;1.70;1.20;;;;;;;;;;4970032;28;20868;-61
2023/08/29 09:56:58;;;;;;;1.50;1.40;;;;;;;;;;4968301;28;20306;-61
2023/08/29 09:59:25;;;;;;;1.17;1.17;;;;;;;;;;4971006;28;20739;-60
2023/08/29 10:01:53;;;;;;;1.67;1.33;;;;;;;;;;4981571;28;20213;-61
2023/08/29 10:04:21;;;;;;;1.38;1.38;;;;;;;;;;4952055;28;20322;-61
2023/08/29 10:06:49;;;;;;;2.60;1.10;;;;;;;;;;4959463;28;20209;-61
2023/08/29 10:09:18;;;;;;;1.35;1.23;;;;;;;;;;4957385;28;20212;-63
2023/08/29 10:11:45;;;;;;;3.05;1.55;;;;;;;;;;4967074;28;20267;-62
2023/08/29 10:14:12;;;;;;;2.85;1.23;;;;;;;;;;4957362;28;20218;-63
2023/08/29 10:16:40;;;;;;;2.05;1.00;;;;;;;;;;4956343;28;20206;-63
2023/08/29 10:19:08;;;;;;;2.67;1.10;;;;;;;;;;4961327;28;20217;-63
2023/08/29 10:21:35;;;;;;;1.63;1.52;;;;;;;;;;4962554;28;20253;-62
2023/08/29 10:24:03;;;;;;;1.38;1.15;;;;;;;;;;4957551;28;20245;-62
2023/08/29 10:26:31;;;;;;;1.38;1.30;;;;;;;;;;4968235;28;20218;-63
2023/08/29 10:28:58;;;;;;;1.30;1.27;;;;;;;;;;4967316;28;20239;-63
2023/08/29 10:31:26;;;;;;;1.17;1.17;;;;;;;;;;4953035;28;20599;-63
2023/08/29 10:33:56;;;;;;;2.83;1.00;;;;;;;;;;4953258;28;20214;-62
2023/08/29 10:36:25;;;;;;;1.05;0.90;;;;;;;;;;4963934;28;20677;-62
2023/08/29 10:38:53;;;;;;;1.95;1.08;;;;;;;;;;4970183;28;20304;-62
2023/08/29 10:41:20;;;;;;;1.20;1.10;;;;;;;;;;4966612;28;20214;-62
2023/08/29 10:43:50;;;;;;;1.27;1.27;;;;;;;;;;4955778;28;20234;-62
2023/08/29 10:46:17;;;;;;;1.05;1.05;;;;;;;;;;4960575;28;20226;-64
2023/08/29 10:48:54;;;;;;;3.03;1.30;;;;;;;;;;4956520;28;20207;-64
2023/08/29 10:51:23;;;;;;;1.95;1.20;;;;;;;;;;4968093;28;20747;-64
2023/08/29 10:53:52;;;;;;;1.95;1.20;;;;;;;;;;4970458;28;20213;-64
2023/08/29 10:56:20;;;;;;;2.30;1.33;;;;;;;;;;4967703;28;20211;-63
2023/08/29 10:58:48;;;;;;;1.38;1.30;;;;;;;;;;4965284;28;20202;-64
2023/08/29 11:01:31;;;;;;;1.58;1.38;;;;;;;;;;4967534;28;20238;-64
2023/08/29 11:03:59;;;;;;;1.10;1.10;;;;;;;;;;4967472;28;20240;-64
2023/08/29 11:06:27;;;;;;;1.17;1.08;;;;;;;;;;4967252;28;20210;-63
2023/08/29 11:09:09;;;;;;;1.27;1.27;;;;;;;;;;4967291;28;20796;-64
2023/08/29 11:11:38;;;;;;;1.75;1.10;;;;;;;;;;4954504;28;20235;-63
2023/08/29 11:14:06;;;;;;;0.98;0.98;;;;;;;;;;4952162;28;20207;-64
2023/08/29 11:16:35;;;;;;;1.42;1.30;;;;;;;;;;4961653;28;20210;-63
2023/08/29 11:19:08;;;;;;;1.20;1.10;;;;;;;;;;4967934;28;20214;-63
2023/08/29 11:21:35;;;;;;;1.13;1.00;;;;;;;;;;4965550;28;20716;-65
2023/08/29 11:24:05;;;;;;;0.95;0.95;;;;;;;;;;4967478;28;20233;-61
2023/08/29 11:26:33;;;;;;;1.60;1.30;;;;;;;;;;4968417;28;20214;-63
2023/08/29 11:29:01;;;;;;;0.80;0.80;;;;;;;;;;4968208;28;20214;-61
2023/08/29 11:31:28;;;;;;;1.65;1.05;;;;;;;;;;4968109;28;20712;-62
2023/08/29 11:33:55;;;;;;;0.80;0.80;;;;;;;;;;4967659;28;20210;-61
2023/08/29 11:36:22;;;;;;;1.70;0.75;;;;;;;;;;4968508;28;20206;-61
2023/08/29 11:38:49;;;;;;;3.30;0.82;;;;;;;;;;4968265;28;20207;-61
2023/08/29 11:41:16;;;;;;;0.63;0.63;;;;;;;;;;4968507;28;20214;-72
2023/08/29 11:43:44;;;;;;;0.70;0.70;;;;;;;;;;4968653;28;20306;-59
2023/08/29 11:46:12;;;;;;;2.20;0.88;;;;;;;;;;4967737;28;20613;-61
2023/08/29 11:48:39;;;;;;;1.13;0.55;;;;;;;;;;4963628;28;20214;-62
2023/08/29 11:51:09;;;;;;;0.60;0.60;;;;;;;;;;4983806;28;20482;-61
2023/08/29 11:53:37;;;;;;;0.70;0.70;;;;;;;;;;4983001;28;20683;-61
2023/08/29 11:56:05;;;;;;;0.85;0.60;;;;;;;;;;4954460;28;20213;-61
2023/08/29 11:58:32;;;;;;;0.50;0.50;;;;;;;;;;4961504;28;20211;-62
2023/08/29 12:01:02;;;;;;;0.50;0.47;;;;;;;;;;4953386;28;20653;-61
2023/08/29 12:03:30;;;;;;;0.50;0.45;;;;;;;;;;4963775;28;20202;-61
2023/08/29 12:05:58;;;;;;;0.60;0.60;;;;;;;;;;4955707;28;20230;-61
2023/08/29 12:08:35;;;;;;;1.10;0.80;;;;;;;;;;4958177;28;20230;-61
2023/08/29 12:11:02;;;;;;;3.10;1.00;;;;;;;;;;4951816;28;20215;-61
2023/08/29 12:13:29;;;;;;;0.77;0.77;;;;;;;;;;4948758;28;20237;-61
2023/08/29 12:15:56;;;;;;;0.90;0.60;;;;;;;;;;4960119;28;20408;-60
2023/08/29 12:18:24;;;;;;;0.60;0.60;;;;;;;;;;4966683;28;20844;-61
2023/08/29 12:20:53;;;;;;;0.57;0.57;;;;;;;;;;4967123;28;20277;-61
2023/08/29 12:23:27;;;;;;;0.60;0.60;;;;;;;;;;4967460;28;20206;-61
2023/08/29 12:25:56;;;;;;;1.95;0.60;;;;;;;;;;4968363;28;20230;-61
2023/08/29 12:28:24;;;;;;;1.38;0.70;;;;;;;;;;4977238;28;20217;-61
2023/08/29 12:30:51;;;;;;;0.70;0.70;;;;;;;;;;4970476;28;20750;-61
2023/08/29 12:33:20;;;;;;;0.85;0.65;;;;;;;;;;4970426;28;20225;-61
2023/08/29 12:35:47;;;;;;;0.45;0.45;;;;;;;;;;4965725;28;20864;-61
2023/08/29 12:38:15;;;;;;;0.65;0.65;;;;;;;;;;4970918;28;20218;-61
2023/08/29 12:40:42;;;;;;;0.70;0.70;;;;;;;;;;4970215;28;20210;-61
2023/08/29 12:43:11;;;;;;;0.80;0.80;;;;;;;;;;4970644;28;20641;-61
2023/08/29 12:45:38;;;;;;;0.57;0.57;;;;;;;;;;4970561;28;20257;-61
2023/08/29 12:48:06;;;;;;;0.80;0.80;;;;;;;;;;4970812;28;20214;-61
2023/08/29 12:50:33;;;;;;;2.28;0.88;;;;;;;;;;4971108;28;20221;-61
2023/08/29 12:53:00;;;;;;;3.13;0.85;;;;;;;;;;4966911;28;20214;-61
2023/08/29 12:55:28;;;;;;;1.00;1.00;;;;;;;;;;4965875;28;20217;-62
2023/08/29 12:57:55;;;;;;;0.80;0.80;;;;;;;;;;4969116;28;20229;-61
2023/08/29 13:00:23;;;;;;;1.13;1.00;;;;;;;;;;4969553;28;20207;-60
2023/08/29 13:02:50;;;;;;;1.20;1.20;;;;;;;;;;4970762;28;20818;-60
2023/08/29 13:05:18;;;;;;;1.23;1.23;;;;;;;;;;4970786;28;20772;-61
2023/08/29 13:07:45;;;;;;;1.20;1.20;;;;;;;;;;4969953;28;20214;-61
2023/08/29 13:10:13;;;;;;;1.60;1.50;;;;;;;;;;4969864;28;20214;-61
2023/08/29 13:12:41;;;;;;;1.10;1.10;;;;;;;;;;4970387;28;20233;-61
2023/08/29 13:15:11;;;;;;;1.10;1.10;;;;;;;;;;4970429;28;20715;-61
2023/08/29 13:17:38;;;;;;;0.93;0.93;;;;;;;;;;4970325;28;20249;-61
2023/08/29 13:20:07;;;;;;;1.80;1.05;;;;;;;;;;4970227;28;20262;-61
2023/08/29 13:22:34;;;;;;;1.00;1.00;;;;;;;;;;4968960;28;20281;-61
2023/08/29 13:25:01;;;;;;;1.25;0.90;;;;;;;;;;4970349;28;20234;-61
2023/08/29 13:27:29;;;;;;;0.98;0.98;;;;;;;;;;4970245;28;20226;-61
2023/08/29 13:29:57;;;;;;;1.08;0.90;;;;;;;;;;4968687;28;20205;-60
2023/08/29 13:32:24;;;;;;;3.45;1.05;;;;;;;;;;4970088;28;20210;-61
2023/08/29 13:34:51;;;;;;;1.15;1.08;;;;;;;;;;4969892;28;20681;-61
2023/08/29 13:37:19;;;;;;;1.10;1.10;;;;;;;;;;4974272;28;20690;-61
2023/08/29 13:39:46;;;;;;;0.80;0.80;;;;;;;;;;4968389;28;20314;-61
2023/08/29 13:42:15;;;;;;;0.90;0.90;;;;;;;;;;4969517;28;20431;-61
2023/08/29 13:44:42;;;;;;;1.45;1.40;;;;;;;;;;4970870;28;20728;-61
2023/08/29 13:47:11;;;;;;;1.30;1.20;;;;;;;;;;4964708;28;20230;-60
2023/08/29 13:49:38;;;;;;;2.38;1.00;;;;;;;;;;4966645;28;20219;-61
2023/08/29 13:52:07;;;;;;;1.90;1.15;;;;;;;;;;4970031;28;20211;-61
2023/08/29 13:54:34;;;;;;;1.45;1.45;;;;;;;;;;4969729;28;20269;-61
2023/08/29 13:57:01;;;;;;;1.23;1.20;;;;;;;;;;4969029;28;20673;-61
2023/08/29 13:59:28;;;;;;;1.27;1.27;;;;;;;;;;4968959;28;20202;-61
2023/08/29 14:01:55;;;;;;;1.88;1.30;;;;;;;;;;4969788;28;20222;-61
2023/08/29 14:04:24;;;;;;;1.00;1.00;;;;;;;;;;4969164;28;20202;-61
2023/08/29 14:06:51;;;;;;;1.70;1.15;;;;;;;;;;4969185;28;20229;-61
2023/08/29 14:09:18;;;;;;;1.23;1.13;;;;;;;;;;4967535;28;20211;-61
2023/08/29 14:11:45;;;;;;;1.00;1.00;;;;;;;;;;4963492;28;20226;-61
2023/08/29 14:14:12;;;;;;;0.90;0.90;;;;;;;;;;4969547;28;20206;-61
2023/08/29 14:16:39;;;;;;;1.27;1.27;;;;;;;;;;4964100;28;20238;-61
2023/08/29 14:19:06;;;;;;;1.10;1.10;;;;;;;;;;4968614;28;20211;-61
2023/08/29 14:21:35;;;;;;;1.75;0.90;;;;;;;;;;4967920;28;20305;-61
2023/08/29 14:24:03;;;;;;;1.15;1.15;;;;;;;;;;4985141;28;20210;-61
2023/08/29 14:26:30;;;;;;;1.20;1.20;;;;;;;;;;4963126;28;20294;-61
2023/08/29 14:28:57;;;;;;;1.50;1.40;;;;;;;;;;4969190;28;20241;-61
2023/08/29 14:31:24;;;;;;;1.48;1.00;;;;;;;;;;4965629;28;20211;-61
2023/08/29 14:33:52;;;;;;;2.95;1.35;;;;;;;;;;4969245;28;20217;-61
2023/08/29 14:36:19;;;;;;;1.55;1.30;;;;;;;;;;4969852;28;20680;-61
2023/08/29 14:38:47;;;;;;;1.10;1.10;;;;;;;;;;4969249;28;20265;-61
2023/08/29 14:41:15;;;;;;;1.27;1.27;;;;;;;;;;4969370;28;20329;-61
2023/08/29 14:43:42;;;;;;;1.50;1.40;;;;;;;;;;4969170;28;20240;-61
2023/08/29 14:46:09;;;;;;;1.50;1.40;;;;;;;;;;4969310;28;20233;-60